Time;durP1;ratioP1;P1;durP2;ratioP2;P2;SDS_P1;SDS_P2;PMS_P1;PMS_P2;Temp;Humidity;BMP_temperature;BMP_pressure;BME280_temperature;BME280_humidity;BME280_pressure;Samples;Min_cycle;Max_cycle;Signal;HPM_P1;HPM_P2
2023/03/23 00:03:11;;;;;;;55.73;29.13;;;;;;;;;;10406069;28;20033;-84
2023/03/23 00:08:12;;;;;;;48.43;28.60;;;;;;;;;;10427978;28;20025;-84
2023/03/23 00:13:19;;;;;;;50.08;26.50;;;;;;;;;;10407173;28;20140;-83
2023/03/23 00:18:21;;;;;;;50.63;27.57;;;;;;;;;;10416722;28;20037;-84
2023/03/23 00:23:26;;;;;;;46.47;25.37;;;;;;;;;;10425185;28;20071;-84
2023/03/23 00:28:27;;;;;;;46.17;23.83;;;;;;;;;;10413991;28;20072;-83
2023/03/23 00:33:30;;;;;;;42.80;23.23;;;;;;;;;;10395682;28;20053;-83
2023/03/23 00:38:31;;;;;;;42.15;23.90;;;;;;;;;;10432680;28;20052;-83
2023/03/23 00:43:35;;;;;;;51.93;29.03;;;;;;;;;;10415616;28;20107;-83
2023/03/23 00:48:44;;;;;;;76.57;40.50;;;;;;;;;;10420404;28;20040;-83
2023/03/23 00:53:45;;;;;;;71.87;38.30;;;;;;;;;;10415881;28;20664;-84
2023/03/23 00:58:46;;;;;;;47.50;28.30;;;;;;;;;;10422340;28;20044;-83
2023/03/23 01:03:49;;;;;;;47.70;26.13;;;;;;;;;;10406886;28;20041;-82
2023/03/23 01:08:50;;;;;;;42.17;24.10;;;;;;;;;;10421100;28;20076;-83
2023/03/23 01:13:51;;;;;;;37.20;22.30;;;;;;;;;;10423760;28;20033;-82
2023/03/23 01:18:52;;;;;;;46.47;25.50;;;;;;;;;;10417513;28;20729;-84
2023/03/23 01:23:53;;;;;;;39.33;22.10;;;;;;;;;;10420247;28;20126;-83
2023/03/23 01:28:55;;;;;;;47.95;26.65;;;;;;;;;;10419983;28;20036;-83
2023/03/23 01:33:56;;;;;;;37.92;22.08;;;;;;;;;;10388519;28;20211;-83
2023/03/23 01:38:57;;;;;;;37.97;20.70;;;;;;;;;;10412479;28;20052;-84
2023/03/23 01:44:02;;;;;;;37.70;21.80;;;;;;;;;;10439922;28;20043;-83
2023/03/23 01:49:12;;;;;;;39.55;21.17;;;;;;;;;;10428827;28;20061;-84
2023/03/23 01:54:18;;;;;;;35.03;20.85;;;;;;;;;;10436950;28;20513;-83
2023/03/23 01:59:20;;;;;;;36.60;20.15;;;;;;;;;;10430647;28;20041;-84
2023/03/23 02:04:23;;;;;;;38.60;21.05;;;;;;;;;;10422328;28;20041;-83
2023/03/23 02:09:27;;;;;;;31.88;19.48;;;;;;;;;;10438440;28;20036;-83
2023/03/23 02:14:29;;;;;;;37.85;23.33;;;;;;;;;;10430921;28;20028;-83
2023/03/23 02:19:53;;;;;;;40.30;22.20;;;;;;;;;;10440008;28;20045;-84
2023/03/23 02:24:58;;;;;;;39.30;22.13;;;;;;;;;;10436147;28;20037;-84
2023/03/23 02:30:22;;;;;;;36.90;21.02;;;;;;;;;;10431475;28;20037;-84
2023/03/23 02:35:28;;;;;;;33.42;20.58;;;;;;;;;;10348995;28;20072;-85
2023/03/23 02:40:33;;;;;;;30.43;18.30;;;;;;;;;;10440724;28;20037;-82
2023/03/23 02:45:34;;;;;;;31.73;17.80;;;;;;;;;;10418412;28;20034;-84
2023/03/23 02:50:37;;;;;;;32.17;18.20;;;;;;;;;;10414544;28;20025;-84
2023/03/23 02:55:41;;;;;;;30.20;18.33;;;;;;;;;;10430667;28;20095;-82
2023/03/23 03:00:42;;;;;;;30.70;18.53;;;;;;;;;;10428571;23;1052900;-84
2023/03/23 03:05:43;;;;;;;34.97;19.87;;;;;;;;;;10463833;28;20033;-83
2023/03/23 03:11:17;;;;;;;38.33;21.43;;;;;;;;;;10477888;28;20056;-83
2023/03/23 03:16:25;;;;;;;40.43;22.80;;;;;;;;;;10433318;28;20105;-84
2023/03/23 03:21:28;;;;;;;45.73;25.97;;;;;;;;;;10479860;28;20044;-84
2023/03/23 03:26:34;;;;;;;45.10;26.43;;;;;;;;;;10485139;28;20033;-84
2023/03/23 03:31:37;;;;;;;49.33;28.40;;;;;;;;;;10442073;28;20044;-84
2023/03/23 03:36:40;;;;;;;50.30;30.10;;;;;;;;;;10420458;28;20032;-83
2023/03/23 03:41:41;;;;;;;47.90;28.07;;;;;;;;;;10461882;28;20032;-84
2023/03/23 03:46:43;;;;;;;53.50;30.07;;;;;;;;;;10468590;28;20044;-83
2023/03/23 03:51:44;;;;;;;54.67;30.60;;;;;;;;;;10467921;28;20102;-82
2023/03/23 03:56:45;;;;;;;50.97;28.03;;;;;;;;;;10472125;28;20040;-81
2023/03/23 04:01:46;;;;;;;54.27;30.47;;;;;;;;;;10399233;28;20057;-83
2023/03/23 04:06:48;;;;;;;53.43;30.37;;;;;;;;;;10407834;28;20119;-83
2023/03/23 04:11:49;;;;;;;50.40;28.13;;;;;;;;;;10441035;28;20396;-83
2023/03/23 04:16:56;;;;;;;45.30;25.17;;;;;;;;;;10422200;28;20036;-83
2023/03/23 04:21:58;;;;;;;50.60;28.63;;;;;;;;;;10404528;28;20076;-81
2023/03/23 04:26:59;;;;;;;58.63;31.03;;;;;;;;;;10410865;28;20029;-83
2023/03/23 04:32:01;;;;;;;61.80;32.17;;;;;;;;;;10402309;28;20369;-82
2023/03/23 04:37:02;;;;;;;50.20;27.93;;;;;;;;;;10408474;28;20029;-80
2023/03/23 04:42:03;;;;;;;53.27;27.97;;;;;;;;;;10402496;28;20130;-81
2023/03/23 04:47:04;;;;;;;70.83;34.27;;;;;;;;;;10400910;28;20506;-81
2023/03/23 04:52:05;;;;;;;46.87;24.93;;;;;;;;;;10399745;28;20041;-84
2023/03/23 04:57:08;;;;;;;40.80;22.57;;;;;;;;;;10383730;28;20040;-84
2023/03/23 05:02:12;;;;;;;44.57;24.17;;;;;;;;;;10429525;28;20061;-83
2023/03/23 05:07:15;;;;;;;43.40;24.13;;;;;;;;;;10411331;28;20040;-86
2023/03/23 05:12:17;;;;;;;41.83;24.23;;;;;;;;;;10442802;28;20029;-81
2023/03/23 05:17:18;;;;;;;40.93;23.20;;;;;;;;;;10430871;28;20084;-82
2023/03/23 05:22:20;;;;;;;41.83;24.80;;;;;;;;;;10421147;28;20095;-84
2023/03/23 05:27:30;;;;;;;49.60;29.33;;;;;;;;;;10420406;28;20127;-84
2023/03/23 05:32:37;;;;;;;44.13;27.07;;;;;;;;;;10442638;28;20024;-85
2023/03/23 05:37:38;;;;;;;40.27;25.43;;;;;;;;;;10442615;28;20029;-82
2023/03/23 05:42:40;;;;;;;47.27;31.43;;;;;;;;;;10443213;28;20484;-83
2023/03/23 05:47:41;;;;;;;54.97;37.80;;;;;;;;;;10442584;28;20108;-84
2023/03/23 05:52:42;;;;;;;32.40;20.73;;;;;;;;;;10424116;28;20028;-84
2023/03/23 05:57:44;;;;;;;60.35;33.88;;;;;;;;;;10405430;28;20060;-84
2023/03/23 06:02:45;;;;;;;84.53;46.93;;;;;;;;;;10436279;28;20502;-84
2023/03/23 06:07:47;;;;;;;102.70;50.67;;;;;;;;;;10449039;28;20090;-83
2023/03/23 06:12:48;;;;;;;25.13;14.73;;;;;;;;;;10417418;28;20504;-83
2023/03/23 06:17:50;;;;;;;21.20;11.30;;;;;;;;;;10403401;28;20036;-83
2023/03/23 06:22:52;;;;;;;18.95;10.88;;;;;;;;;;10403371;28;20109;-84
2023/03/23 06:27:53;;;;;;;17.00;10.70;;;;;;;;;;10403204;28;20814;-84
2023/03/23 06:32:54;;;;;;;15.10;10.15;;;;;;;;;;10420958;28;20113;-85
2023/03/23 06:37:55;;;;;;;14.77;9.25;;;;;;;;;;10432532;28;20051;-83
2023/03/23 06:42:59;;;;;;;16.17;9.40;;;;;;;;;;10422611;28;20063;-86
2023/03/23 06:47:59;;;;;;;13.60;8.57;;;;;;;;;;10402357;28;20021;-83
2023/03/23 06:53:01;;;;;;;13.93;8.50;;;;;;;;;;10401792;28;20025;-84
2023/03/23 06:58:02;;;;;;;15.80;9.18;;;;;;;;;;10423581;28;20076;-84
2023/03/23 07:03:03;;;;;;;17.98;8.38;;;;;;;;;;10448160;28;20025;-84
2023/03/23 07:08:05;;;;;;;15.70;8.75;;;;;;;;;;10439746;28;20476;-84
2023/03/23 07:13:06;;;;;;;14.27;8.00;;;;;;;;;;10413392;28;20132;-83
2023/03/23 07:18:07;;;;;;;13.45;8.15;;;;;;;;;;10433493;28;20193;-83
2023/03/23 07:23:08;;;;;;;14.60;7.75;;;;;;;;;;10437133;28;20038;-84
2023/03/23 07:28:09;;;;;;;20.50;8.63;;;;;;;;;;10418046;28;20036;-84
2023/03/23 07:33:10;;;;;;;14.35;8.35;;;;;;;;;;10405416;28;20408;-82
2023/03/23 07:38:11;;;;;;;14.27;8.38;;;;;;;;;;10431404;28;20124;-83
2023/03/23 07:43:12;;;;;;;12.98;7.32;;;;;;;;;;10419429;28;20032;-84
2023/03/23 07:48:13;;;;;;;13.07;7.97;;;;;;;;;;10414463;28;20634;-84
2023/03/23 07:53:15;;;;;;;15.50;8.98;;;;;;;;;;10428014;28;20104;-83
2023/03/23 07:58:18;;;;;;;86.05;39.83;;;;;;;;;;10409941;28;20100;-83
2023/03/23 08:03:24;;;;;;;56.85;31.20;;;;;;;;;;10423305;28;20109;-83
2023/03/23 08:08:25;;;;;;;32.78;17.88;;;;;;;;;;10417371;28;20029;-85
2023/03/23 08:13:26;;;;;;;20.67;10.68;;;;;;;;;;10428477;28;20040;-85
2023/03/23 08:18:27;;;;;;;18.60;10.15;;;;;;;;;;10417572;28;20050;-84
2023/03/23 08:23:28;;;;;;;26.25;11.65;;;;;;;;;;10416320;28;20030;-82
2023/03/23 08:28:29;;;;;;;23.48;12.27;;;;;;;;;;10413129;28;20399;-82
2023/03/23 08:33:30;;;;;;;23.35;11.57;;;;;;;;;;10431928;28;20397;-82
2023/03/23 08:38:32;;;;;;;33.40;14.15;;;;;;;;;;10347708;28;20048;-82
2023/03/23 08:43:34;;;;;;;19.02;10.43;;;;;;;;;;10363979;28;20055;-84
2023/03/23 08:48:35;;;;;;;17.38;7.85;;;;;;;;;;10366522;28;21441;-81
2023/03/23 08:53:36;;;;;;;24.20;10.68;;;;;;;;;;10362524;28;20037;-82
2023/03/23 08:58:38;;;;;;;19.73;9.20;;;;;;;;;;10364241;28;20485;-83
2023/03/23 09:03:40;;;;;;;13.90;7.43;;;;;;;;;;10382239;28;20701;-82
2023/03/23 09:08:41;;;;;;;24.23;11.07;;;;;;;;;;10378580;28;20041;-80
2023/03/23 09:13:42;;;;;;;16.25;8.70;;;;;;;;;;10382084;28;20554;-81
2023/03/23 09:18:43;;;;;;;30.05;13.65;;;;;;;;;;10379624;28;20041;-82
2023/03/23 09:23:45;;;;;;;32.08;13.75;;;;;;;;;;10388366;28;20030;-82
2023/03/23 09:28:46;;;;;;;13.65;6.10;;;;;;;;;;10402944;28;20021;-85
2023/03/23 09:33:51;;;;;;;14.57;6.32;;;;;;;;;;10423346;28;20540;-82
2023/03/23 09:38:52;;;;;;;18.75;8.68;;;;;;;;;;10408974;28;20528;-83
2023/03/23 09:43:56;;;;;;;19.63;7.70;;;;;;;;;;10413026;28;20546;-85
2023/03/23 09:49:04;;;;;;;13.20;6.60;;;;;;;;;;10409129;28;20758;-86
2023/03/23 09:54:24;;;;;;;21.42;9.90;;;;;;;;;;10409747;28;20065;-84
2023/03/23 09:59:30;;;;;;;21.58;9.77;;;;;;;;;;10427796;28;20056;-85
2023/03/23 10:04:50;;;;;;;18.25;8.73;;;;;;;;;;10473885;28;20025;-86
2023/03/23 10:09:53;;;;;;;16.63;7.85;;;;;;;;;;10473214;28;20553;-86
2023/03/23 10:15:09;;;;;;;12.43;6.22;;;;;;;;;;10472269;28;20060;-87
2023/03/23 10:20:14;;;;;;;14.27;6.00;;;;;;;;;;10456938;28;20080;-86
2023/03/23 10:25:16;;;;;;;;;;;;;;;;;;10472035;28;20135;-87
2023/03/23 10:30:23;;;;;;;9.50;4.85;;;;;;;;;;10491262;28;19991;-85
2023/03/23 10:35:26;;;;;;;12.05;5.20;;;;;;;;;;10457627;28;20033;-86
2023/03/23 10:40:29;;;;;;;13.43;5.55;;;;;;;;;;10489780;28;20036;-85
2023/03/23 10:45:34;;;;;;;8.82;4.10;;;;;;;;;;10490999;28;20067;-87
2023/03/23 10:50:36;;;;;;;12.27;4.57;;;;;;;;;;10460990;28;20041;-85
2023/03/23 10:55:39;;;;;;;7.72;4.22;;;;;;;;;;10455100;28;20063;-87
2023/03/23 11:00:42;;;;;;;7.40;4.18;;;;;;;;;;10422386;28;20061;-88
2023/03/23 11:05:44;;;;;;;7.97;4.55;;;;;;;;;;10419889;28;20779;-86
2023/03/23 11:10:52;;;;;;;10.95;4.45;;;;;;;;;;10424098;28;20029;-85
2023/03/23 11:15:53;;;;;;;10.23;4.90;;;;;;;;;;10414621;28;20037;-86
2023/03/23 11:20:56;;;;;;;7.22;3.58;;;;;;;;;;10400575;28;20493;-87
2023/03/23 11:25:57;;;;;;;6.25;3.80;;;;;;;;;;10401516;28;20025;-84
2023/03/23 11:31:02;;;;;;;6.70;4.13;;;;;;;;;;10415339;28;20041;-85
2023/03/23 11:36:08;;;;;;;8.05;3.78;;;;;;;;;;10396953;28;20029;-85
2023/03/23 11:41:10;;;;;;;9.90;4.95;;;;;;;;;;10393632;28;20057;-86
2023/03/23 11:46:15;;;;;;;7.75;4.28;;;;;;;;;;10403992;28;20675;-83
2023/03/23 11:51:20;;;;;;;12.32;5.78;;;;;;;;;;10403058;28;20040;-84
2023/03/23 11:56:26;;;;;;;9.27;4.90;;;;;;;;;;10382893;28;20108;-84
2023/03/23 12:01:35;;;;;;;11.25;5.75;;;;;;;;;;10401564;28;20049;-87
2023/03/23 12:06:43;;;;;;;9.95;4.53;;;;;;;;;;10402987;28;20523;-83
2023/03/23 12:11:58;;;;;;;9.68;4.70;;;;;;;;;;10385080;28;20047;-86
2023/03/23 12:17:18;;;;;;;12.68;4.75;;;;;;;;;;10384496;28;20029;-85
2023/03/23 12:22:42;;;;;;;7.30;4.70;;;;;;;;;;10401489;28;20041;-86
2023/03/23 12:28:01;;;;;;;9.20;4.33;;;;;;;;;;10396665;28;20489;-85
2023/03/23 12:33:28;;;;;;;7.93;4.18;;;;;;;;;;10375450;28;20076;-84
2023/03/23 12:38:29;;;;;;;5.03;3.50;;;;;;;;;;10363364;28;20057;-85
2023/03/23 12:43:47;;;;;;;6.65;4.05;;;;;;;;;;10383795;28;20044;-87
2023/03/23 12:48:53;;;;;;;8.30;4.22;;;;;;;;;;10398917;28;20022;-87
2023/03/23 12:53:54;;;;;;;;;;;;;;;;;;10396926;28;20033;-87
2023/03/23 12:59:01;;;;;;;8.00;4.32;;;;;;;;;;10411915;28;20280;-83
2023/03/23 13:04:17;;;;;;;7.22;4.80;;;;;;;;;;10440537;28;20111;-84
2023/03/23 13:09:18;;;;;;;9.57;5.68;;;;;;;;;;10438691;28;20040;-85
2023/03/23 13:14:37;;;;;;;15.48;7.63;;;;;;;;;;10442617;28;20033;-83
2023/03/23 13:19:57;;;;;;;18.00;6.38;;;;;;;;;;10442254;28;20328;-85
2023/03/23 13:25:03;;;;;;;20.73;8.95;;;;;;;;;;10424359;28;20079;-82
2023/03/23 13:30:05;;;;;;;23.20;9.45;;;;;;;;;;10421068;28;20040;-84
2023/03/23 13:35:16;;;;;;;16.92;6.70;;;;;;;;;;10424080;28;20032;-84
2023/03/23 13:40:25;;;;;;;11.50;4.78;;;;;;;;;;10434194;28;20476;-85
2023/03/23 13:45:29;;;;;;;11.77;5.05;;;;;;;;;;10440780;28;20484;-84
2023/03/23 13:50:30;;;;;;;13.30;6.05;;;;;;;;;;10463239;28;20068;-83
2023/03/23 13:55:40;;;;;;;8.27;4.30;;;;;;;;;;10475916;28;20037;-84
2023/03/23 14:00:59;;;;;;;16.67;7.13;;;;;;;;;;10450612;28;20056;-85
2023/03/23 14:06:00;;;;;;;17.70;7.63;;;;;;;;;;10427243;28;20025;-85
2023/03/23 14:11:03;;;;;;;13.10;6.40;;;;;;;;;;10444225;28;20029;-83
2023/03/23 14:16:06;;;;;;;9.30;4.50;;;;;;;;;;10469351;28;20065;-84
2023/03/23 14:21:13;;;;;;;11.88;5.82;;;;;;;;;;10466660;28;20032;-85
2023/03/23 14:26:19;;;;;;;9.85;5.15;;;;;;;;;;10463618;28;20040;-85
2023/03/23 14:31:26;;;;;;;8.15;4.68;;;;;;;;;;10465958;28;20115;-85
2023/03/23 14:36:28;;;;;;;16.55;9.93;;;;;;;;;;10459312;28;20358;-84
2023/03/23 14:41:31;;;;;;;131.40;81.50;;;;;;;;;;10452660;28;20052;-85
2023/03/23 14:46:32;;;;;;;66.53;36.53;;;;;;;;;;10452203;28;20077;-84
2023/03/23 14:51:33;;;;;;;108.13;76.68;;;;;;;;;;10433095;28;20491;-87
2023/03/23 14:56:36;;;;;;;74.63;52.72;;;;;;;;;;10447301;28;20037;-84
2023/03/23 15:01:39;;;;;;;66.05;50.92;;;;;;;;;;10446822;28;20140;-84
2023/03/23 15:06:42;;;;;;;22.52;11.95;;;;;;;;;;10446477;28;20052;-84
2023/03/23 15:11:43;;;;;;;46.63;28.13;;;;;;;;;;10447451;28;20029;-85
2023/03/23 15:16:52;;;;;;;95.85;49.10;;;;;;;;;;10441940;28;20041;-84
2023/03/23 15:21:54;;;;;;;163.95;96.30;;;;;;;;;;10439348;28;20389;-86
2023/03/23 15:27:03;;;;;;;21.80;11.75;;;;;;;;;;10426656;28;20358;-84
2023/03/23 15:32:05;;;;;;;19.08;10.80;;;;;;;;;;10423211;28;20033;-85
2023/03/23 15:37:17;;;;;;;26.42;12.55;;;;;;;;;;10426126;28;20025;-85
2023/03/23 15:42:23;;;;;;;20.25;10.25;;;;;;;;;;10424279;28;20140;-83
2023/03/23 15:47:34;;;;;;;18.75;9.93;;;;;;;;;;10426935;28;20803;-83
2023/03/23 15:52:35;;;;;;;73.53;45.92;;;;;;;;;;10463579;28;20033;-85
2023/03/23 15:57:36;;;;;;;35.60;22.88;;;;;;;;;;10412838;28;20036;-86
2023/03/23 16:02:37;;;;;;;42.40;26.45;;;;;;;;;;10436965;28;20048;-86
2023/03/23 16:07:38;;;;;;;76.95;47.63;;;;;;;;;;10455473;28;20025;-87
2023/03/23 16:12:39;;;;;;;27.02;16.85;;;;;;;;;;10426225;28;20552;-87
2023/03/23 16:17:41;;;;;;;66.03;32.25;;;;;;;;;;10446659;28;20036;-87
2023/03/23 16:22:42;;;;;;;130.40;70.00;;;;;;;;;;10438438;28;20033;-89
2023/03/23 16:27:46;;;;;;;184.35;102.78;;;;;;;;;;10449672;28;20028;-88
2023/03/23 16:32:48;;;;;;;41.80;23.50;;;;;;;;;;10443737;28;20428;-87
2023/03/23 16:37:50;;;;;;;149.25;91.50;;;;;;;;;;10438147;28;20041;-85
2023/03/23 16:42:51;;;;;;;87.93;47.25;;;;;;;;;;10453587;28;20056;-85
2023/03/23 16:47:55;;;;;;;60.60;27.60;;;;;;;;;;10465188;28;20065;-87
2023/03/23 16:52:57;;;;;;;42.65;20.67;;;;;;;;;;10432833;28;20583;-89
2023/03/23 16:58:01;;;;;;;48.10;22.25;;;;;;;;;;10482920;28;20052;-89
2023/03/23 17:03:02;;;;;;;48.85;27.42;;;;;;;;;;10470915;28;20037;-89
2023/03/23 17:08:03;;;;;;;57.67;29.27;;;;;;;;;;10470460;28;20024;-88
2023/03/23 17:13:05;;;;;;;26.27;13.82;;;;;;;;;;10469220;28;20059;-84
2023/03/23 17:18:06;;;;;;;106.13;53.97;;;;;;;;;;10448592;28;20032;-85
2023/03/23 17:23:07;;;;;;;57.17;30.02;;;;;;;;;;10417764;28;20159;-86
2023/03/23 17:28:08;;;;;;;103.00;54.53;;;;;;;;;;10419656;28;20086;-86
2023/03/23 17:33:10;;;;;;;67.55;29.05;;;;;;;;;;10424739;28;20029;-83
2023/03/23 17:38:11;;;;;;;54.80;26.42;;;;;;;;;;10439231;28;20484;-85
2023/03/23 17:43:12;;;;;;;92.35;39.17;;;;;;;;;;10417981;28;20040;-85
2023/03/23 17:48:13;;;;;;;47.33;19.98;;;;;;;;;;10423033;28;20089;-86
2023/03/23 17:53:14;;;;;;;46.47;18.02;;;;;;;;;;10429670;28;20144;-83
2023/03/23 17:58:15;;;;;;;36.88;16.30;;;;;;;;;;10452570;28;20056;-85
2023/03/23 18:03:16;;;;;;;33.67;16.15;;;;;;;;;;10482502;28;20163;-84
2023/03/23 18:08:18;;;;;;;27.85;13.68;;;;;;;;;;10462800;28;20688;-85
2023/03/23 18:13:19;;;;;;;38.60;17.25;;;;;;;;;;10475646;28;20051;-83
2023/03/23 18:18:20;;;;;;;43.97;19.73;;;;;;;;;;10450605;28;20035;-83
2023/03/23 18:23:21;;;;;;;35.47;18.00;;;;;;;;;;10470505;28;20075;-84
2023/03/23 18:28:24;;;;;;;54.47;25.27;;;;;;;;;;10462691;28;20074;-82
2023/03/23 18:33:25;;;;;;;30.52;15.88;;;;;;;;;;10459505;28;20422;-85
2023/03/23 18:38:26;;;;;;;112.53;44.67;;;;;;;;;;10468416;28;20075;-84
2023/03/23 18:43:27;;;;;;;46.08;23.48;;;;;;;;;;10440654;28;20717;-85
2023/03/23 18:48:28;;;;;;;35.97;17.05;;;;;;;;;;10422525;28;20037;-83
2023/03/23 18:53:30;;;;;;;107.65;44.40;;;;;;;;;;10458173;28;20036;-83
2023/03/23 18:58:31;;;;;;;112.70;57.38;;;;;;;;;;10471205;28;20061;-84
2023/03/23 19:03:33;;;;;;;90.47;36.55;;;;;;;;;;10420973;28;20381;-85
2023/03/23 19:08:34;;;;;;;100.15;42.67;;;;;;;;;;10439453;28;20029;-86
2023/03/23 19:13:36;;;;;;;130.88;63.42;;;;;;;;;;10484639;28;20059;-84
2023/03/23 19:18:37;;;;;;;105.80;43.83;;;;;;;;;;10424708;28;20053;-85
2023/03/23 19:23:38;;;;;;;84.53;38.13;;;;;;;;;;10475066;28;20040;-85
2023/03/23 19:28:39;;;;;;;82.55;35.30;;;;;;;;;;10458744;28;20033;-85
2023/03/23 19:33:40;;;;;;;49.63;22.95;;;;;;;;;;10449238;28;20020;-86
2023/03/23 19:38:41;;;;;;;52.28;24.65;;;;;;;;;;10455380;28;20033;-84
2023/03/23 19:43:42;;;;;;;51.30;24.15;;;;;;;;;;10481738;22;20033;-85
2023/03/23 19:48:43;;;;;;;61.72;28.48;;;;;;;;;;10403430;28;20045;-84
2023/03/23 19:53:44;;;;;;;86.55;39.35;;;;;;;;;;10408324;28;20477;-83
2023/03/23 19:58:45;;;;;;;71.40;33.50;;;;;;;;;;10401022;28;20433;-86
2023/03/23 20:03:49;;;;;;;67.25;30.95;;;;;;;;;;10393519;28;20053;-86
2023/03/23 20:08:50;;;;;;;73.63;33.17;;;;;;;;;;10396453;28;20124;-88
2023/03/23 20:13:51;;;;;;;37.97;20.80;;;;;;;;;;10432240;28;20031;-87
2023/03/23 20:18:52;;;;;;;39.85;22.52;;;;;;;;;;10426180;28;20094;-87
2023/03/23 20:23:55;;;;;;;41.83;21.73;;;;;;;;;;10427402;28;20392;-84
2023/03/23 20:28:56;;;;;;;37.95;20.95;;;;;;;;;;10436233;28;20033;-86
2023/03/23 20:34:00;;;;;;;46.00;23.48;;;;;;;;;;10436035;28;20021;-86
2023/03/23 20:39:04;;;;;;;52.70;27.73;;;;;;;;;;10420300;28;20404;-87
2023/03/23 20:44:05;;;;;;;40.28;21.58;;;;;;;;;;10449631;28;20040;-84
2023/03/23 20:49:07;;;;;;;46.17;25.38;;;;;;;;;;10434348;28;20115;-88
2023/03/23 20:54:08;;;;;;;58.72;36.55;;;;;;;;;;10428801;28;20458;-86
2023/03/23 20:59:10;;;;;;;38.17;21.58;;;;;;;;;;10425088;28;20408;-89
2023/03/23 21:04:14;;;;;;;59.72;29.00;;;;;;;;;;10432457;28;20409;-89
2023/03/23 21:09:16;;;;;;;47.65;26.40;;;;;;;;;;10430908;28;20504;-88
2023/03/23 21:14:17;;;;;;;48.10;25.25;;;;;;;;;;10435860;28;20040;-87
2023/03/23 21:19:18;;;;;;;57.08;29.25;;;;;;;;;;10424335;28;20037;-88
2023/03/23 21:24:21;;;;;;;38.15;21.52;;;;;;;;;;10413441;28;20037;-89
2023/03/23 21:29:23;;;;;;;45.30;26.63;;;;;;;;;;10431441;28;20025;-88
2023/03/23 21:34:23;;;;;;;62.88;33.55;;;;;;;;;;10431562;28;20491;-87
2023/03/23 21:39:25;;;;;;;73.30;40.97;;;;;;;;;;10430186;28;20072;-88
2023/03/23 21:44:26;;;;;;;67.13;35.72;;;;;;;;;;10429017;28;20432;-88
2023/03/23 21:49:28;;;;;;;56.00;29.20;;;;;;;;;;10445067;28;20025;-88
2023/03/23 21:54:30;;;;;;;44.97;25.35;;;;;;;;;;10444582;28;20041;-87
2023/03/23 21:59:31;;;;;;;53.03;28.30;;;;;;;;;;10435513;28;20444;-87
2023/03/23 22:04:32;;;;;;;49.72;25.98;;;;;;;;;;10435826;28;20092;-86
2023/03/23 22:09:34;;;;;;;39.15;21.48;;;;;;;;;;10431290;28;20044;-86
2023/03/23 22:14:36;;;;;;;31.70;17.92;;;;;;;;;;10444640;28;20036;-89
2023/03/23 22:19:38;;;;;;;28.65;15.60;;;;;;;;;;10431581;28;20124;-87
2023/03/23 22:24:39;;;;;;;26.95;14.38;;;;;;;;;;10426154;28;20036;-90
2023/03/23 22:29:40;;;;;;;27.17;13.52;;;;;;;;;;10444021;28;20032;-86
2023/03/23 22:34:43;;;;;;;26.35;12.13;;;;;;;;;;10431238;28;20035;-87
2023/03/23 22:39:44;;;;;;;24.77;12.13;;;;;;;;;;10443189;28;20102;-86
2023/03/23 22:44:45;;;;;;;20.33;10.68;;;;;;;;;;10440014;28;20136;-87
2023/03/23 22:49:46;;;;;;;21.17;10.35;;;;;;;;;;10447930;28;20040;-87
2023/03/23 22:54:47;;;;;;;20.23;11.05;;;;;;;;;;10446103;28;20044;-87
2023/03/23 22:59:49;;;;;;;17.55;9.73;;;;;;;;;;10448104;28;20492;-87
2023/03/23 23:04:50;;;;;;;15.82;9.38;;;;;;;;;;10445236;28;20029;-87
2023/03/23 23:09:51;;;;;;;17.92;9.90;;;;;;;;;;10438997;28;20048;-87
2023/03/23 23:14:52;;;;;;;17.65;9.43;;;;;;;;;;10429617;28;20127;-86
2023/03/23 23:19:53;;;;;;;19.58;10.15;;;;;;;;;;10435865;28;20320;-88
2023/03/23 23:24:57;;;;;;;17.42;9.20;;;;;;;;;;10441679;28;20166;-88
2023/03/23 23:29:59;;;;;;;19.00;9.82;;;;;;;;;;10429172;28;20033;-87
2023/03/23 23:35:00;;;;;;;17.42;9.30;;;;;;;;;;10430223;28;20420;-87
2023/03/23 23:40:04;;;;;;;18.55;10.30;;;;;;;;;;10446490;28;20044;-87
2023/03/23 23:45:05;;;;;;;16.73;9.82;;;;;;;;;;10428818;28;20365;-87
2023/03/23 23:50:07;;;;;;;17.45;9.98;;;;;;;;;;10444789;28;20029;-89
2023/03/23 23:55:11;;;;;;;17.60;10.35;;;;;;;;;;10445175;28;20045;-89
